sensor_id;sensor_type;location;lat;lon;timestamp;temperature;humidity
11944;DHT22;6031;50.220;10.122;2022-09-09T00:01:26;12.30;99.90
11944;DHT22;6031;50.220;10.122;2022-09-09T00:04:00;12.10;99.90
11944;DHT22;6031;50.220;10.122;2022-09-09T00:06:42;12.00;99.90
11944;DHT22;6031;50.220;10.122;2022-09-09T00:09:20;11.90;99.90
11944;DHT22;6031;50.220;10.122;2022-09-09T00:11:58;11.80;99.90
11944;DHT22;6031;50.220;10.122;2022-09-09T00:17:14;12.00;99.90
11944;DHT22;6031;50.220;10.122;2022-09-09T00:19:50;11.80;99.90
11944;DHT22;6031;50.220;10.122;2022-09-09T00:22:21;11.70;99.90
11944;DHT22;6031;50.220;10.122;2022-09-09T00:24:52;11.70;99.90
11944;DHT22;6031;50.220;10.122;2022-09-09T00:30:12;11.70;99.90
11944;DHT22;6031;50.220;10.122;2022-09-09T00:32:38;11.70;99.90
11944;DHT22;6031;50.220;10.122;2022-09-09T00:35:32;11.70;99.90
11944;DHT22;6031;50.220;10.122;2022-09-09T00:38:02;11.80;99.90
11944;DHT22;6031;50.220;10.122;2022-09-09T00:40:37;11.80;99.90
11944;DHT22;6031;50.220;10.122;2022-09-09T00:43:29;11.80;99.90
11944;DHT22;6031;50.220;10.122;2022-09-09T00:46:22;11.80;99.90
11944;DHT22;6031;50.220;10.122;2022-09-09T00:59:48;11.80;99.90
11944;DHT22;6031;50.220;10.122;2022-09-09T01:04:43;11.60;99.90
11944;DHT22;6031;50.220;10.122;2022-09-09T01:07:18;11.60;99.90
11944;DHT22;6031;50.220;10.122;2022-09-09T01:10:00;11.60;99.90
11944;DHT22;6031;50.220;10.122;2022-09-09T01:12:42;11.70;99.90
11944;DHT22;6031;50.220;10.122;2022-09-09T01:15:10;11.60;99.90
11944;DHT22;6031;50.220;10.122;2022-09-09T01:18:05;11.60;99.90
11944;DHT22;6031;50.220;10.122;2022-09-09T01:23:44;11.60;99.90
11944;DHT22;6031;50.220;10.122;2022-09-09T01:26:35;11.60;99.90
11944;DHT22;6031;50.220;10.122;2022-09-09T01:29:09;11.60;99.90
11944;DHT22;6031;50.220;10.122;2022-09-09T01:31:38;11.60;99.90
11944;DHT22;6031;50.220;10.122;2022-09-09T01:34:11;11.70;99.90
11944;DHT22;6031;50.220;10.122;2022-09-09T01:37:02;11.80;99.90
11944;DHT22;6031;50.220;10.122;2022-09-09T01:39:30;11.70;99.90
11944;DHT22;6031;50.220;10.122;2022-09-09T01:41:56;11.60;99.90
11944;DHT22;6031;50.220;10.122;2022-09-09T01:44:23;11.60;99.90
11944;DHT22;6031;50.220;10.122;2022-09-09T01:46:50;11.60;99.90
11944;DHT22;6031;50.220;10.122;2022-09-09T01:49:16;11.70;99.90
11944;DHT22;6031;50.220;10.122;2022-09-09T01:51:43;11.80;99.90
11944;DHT22;6031;50.220;10.122;2022-09-09T01:54:11;11.80;99.90
11944;DHT22;6031;50.220;10.122;2022-09-09T02:04:49;12.00;99.90
11944;DHT22;6031;50.220;10.122;2022-09-09T02:12:48;11.80;99.90
11944;DHT22;6031;50.220;10.122;2022-09-09T02:18:04;11.90;99.90
11944;DHT22;6031;50.220;10.122;2022-09-09T02:20:33;11.80;99.90
11944;DHT22;6031;50.220;10.122;2022-09-09T02:23:01;11.80;99.90
11944;DHT22;6031;50.220;10.122;2022-09-09T02:25:29;11.80;99.90
11944;DHT22;6031;50.220;10.122;2022-09-09T02:27:57;11.70;99.90
11944;DHT22;6031;50.220;10.122;2022-09-09T02:30:28;11.80;99.90
11944;DHT22;6031;50.220;10.122;2022-09-09T02:32:58;11.70;99.90
11944;DHT22;6031;50.220;10.122;2022-09-09T02:35:25;11.80;99.90
11944;DHT22;6031;50.220;10.122;2022-09-09T02:37:55;11.90;99.90
11944;DHT22;6031;50.220;10.122;2022-09-09T02:40:22;11.90;99.90
11944;DHT22;6031;50.220;10.122;2022-09-09T02:42:48;12.00;99.90
11944;DHT22;6031;50.220;10.122;2022-09-09T02:45:19;12.10;99.90
11944;DHT22;6031;50.220;10.122;2022-09-09T02:48:03;12.10;99.90
11944;DHT22;6031;50.220;10.122;2022-09-09T02:50:35;12.10;99.90
11944;DHT22;6031;50.220;10.122;2022-09-09T02:53:20;12.10;99.90
11944;DHT22;6031;50.220;10.122;2022-09-09T02:55:52;12.10;99.90
11944;DHT22;6031;50.220;10.122;2022-09-09T02:58:20;12.30;99.90
11944;DHT22;6031;50.220;10.122;2022-09-09T03:00:48;12.30;99.90
11944;DHT22;6031;50.220;10.122;2022-09-09T03:03:14;12.70;99.90
11944;DHT22;6031;50.220;10.122;2022-09-09T03:05:41;12.40;99.90
11944;DHT22;6031;50.220;10.122;2022-09-09T03:08:07;12.50;99.90
11944;DHT22;6031;50.220;10.122;2022-09-09T03:10:33;12.40;99.90
11944;DHT22;6031;50.220;10.122;2022-09-09T03:12:59;12.40;99.90
11944;DHT22;6031;50.220;10.122;2022-09-09T03:15:25;12.50;99.90
11944;DHT22;6031;50.220;10.122;2022-09-09T03:17:54;12.50;99.90
11944;DHT22;6031;50.220;10.122;2022-09-09T03:20:20;12.60;99.90
11944;DHT22;6031;50.220;10.122;2022-09-09T03:22:46;12.50;99.90
11944;DHT22;6031;50.220;10.122;2022-09-09T03:25:11;12.50;99.90
11944;DHT22;6031;50.220;10.122;2022-09-09T03:27:37;12.50;99.90
11944;DHT22;6031;50.220;10.122;2022-09-09T03:30:02;12.40;99.90
11944;DHT22;6031;50.220;10.122;2022-09-09T03:32:28;12.40;99.90
11944;DHT22;6031;50.220;10.122;2022-09-09T03:34:54;12.40;99.90
11944;DHT22;6031;50.220;10.122;2022-09-09T03:37:20;12.40;99.90
11944;DHT22;6031;50.220;10.122;2022-09-09T03:39:45;12.30;99.90
11944;DHT22;6031;50.220;10.122;2022-09-09T03:42:15;12.30;99.90
11944;DHT22;6031;50.220;10.122;2022-09-09T03:44:44;12.30;99.90
11944;DHT22;6031;50.220;10.122;2022-09-09T03:47:13;12.30;99.90
11944;DHT22;6031;50.220;10.122;2022-09-09T03:49:38;12.40;99.90
11944;DHT22;6031;50.220;10.122;2022-09-09T03:52:04;12.40;99.90
11944;DHT22;6031;50.220;10.122;2022-09-09T03:54:29;12.20;99.90
11944;DHT22;6031;50.220;10.122;2022-09-09T03:56:55;12.20;99.90
11944;DHT22;6031;50.220;10.122;2022-09-09T03:59:20;12.00;99.90
11944;DHT22;6031;50.220;10.122;2022-09-09T04:01:46;12.00;99.90
11944;DHT22;6031;50.220;10.122;2022-09-09T04:04:12;12.10;99.90
11944;DHT22;6031;50.220;10.122;2022-09-09T04:06:38;12.10;99.90
11944;DHT22;6031;50.220;10.122;2022-09-09T04:09:03;12.10;99.90
11944;DHT22;6031;50.220;10.122;2022-09-09T04:11:29;12.00;99.90
11944;DHT22;6031;50.220;10.122;2022-09-09T04:13:55;12.00;99.90
11944;DHT22;6031;50.220;10.122;2022-09-09T04:16:20;12.00;99.90
11944;DHT22;6031;50.220;10.122;2022-09-09T04:18:46;11.90;99.90
11944;DHT22;6031;50.220;10.122;2022-09-09T04:21:11;11.80;99.90
11944;DHT22;6031;50.220;10.122;2022-09-09T04:23:38;11.80;99.90
11944;DHT22;6031;50.220;10.122;2022-09-09T04:26:04;11.80;99.90
11944;DHT22;6031;50.220;10.122;2022-09-09T04:28:32;11.90;99.90
11944;DHT22;6031;50.220;10.122;2022-09-09T04:31:07;11.90;99.90
11944;DHT22;6031;50.220;10.122;2022-09-09T04:33:34;12.00;99.90
11944;DHT22;6031;50.220;10.122;2022-09-09T04:36:00;12.20;99.90
11944;DHT22;6031;50.220;10.122;2022-09-09T04:38:26;12.20;99.90
11944;DHT22;6031;50.220;10.122;2022-09-09T04:40:51;12.30;99.90
11944;DHT22;6031;50.220;10.122;2022-09-09T04:43:19;12.30;99.90
11944;DHT22;6031;50.220;10.122;2022-09-09T04:45:48;12.40;99.90
11944;DHT22;6031;50.220;10.122;2022-09-09T04:48:14;12.40;99.90
11944;DHT22;6031;50.220;10.122;2022-09-09T04:50:40;12.40;99.90
11944;DHT22;6031;50.220;10.122;2022-09-09T04:53:06;12.30;99.90
11944;DHT22;6031;50.220;10.122;2022-09-09T04:55:32;12.30;99.90
11944;DHT22;6031;50.220;10.122;2022-09-09T04:58:03;12.40;99.90
11944;DHT22;6031;50.220;10.122;2022-09-09T05:00:30;12.50;99.90
11944;DHT22;6031;50.220;10.122;2022-09-09T05:02:56;12.60;99.90
11944;DHT22;6031;50.220;10.122;2022-09-09T05:05:21;12.70;99.90
11944;DHT22;6031;50.220;10.122;2022-09-09T05:07:47;12.70;99.90
11944;DHT22;6031;50.220;10.122;2022-09-09T05:10:13;12.70;99.90
11944;DHT22;6031;50.220;10.122;2022-09-09T05:12:39;12.70;99.90
11944;DHT22;6031;50.220;10.122;2022-09-09T05:15:05;12.70;99.90
11944;DHT22;6031;50.220;10.122;2022-09-09T05:17:30;12.70;99.90
11944;DHT22;6031;50.220;10.122;2022-09-09T05:19:56;12.70;99.90
11944;DHT22;6031;50.220;10.122;2022-09-09T05:22:22;12.70;99.90
11944;DHT22;6031;50.220;10.122;2022-09-09T05:24:49;12.60;99.90
11944;DHT22;6031;50.220;10.122;2022-09-09T05:27:17;12.60;99.90
11944;DHT22;6031;50.220;10.122;2022-09-09T05:29:45;12.50;99.90
11944;DHT22;6031;50.220;10.122;2022-09-09T05:32:11;12.50;99.90
11944;DHT22;6031;50.220;10.122;2022-09-09T05:34:36;12.50;99.90
11944;DHT22;6031;50.220;10.122;2022-09-09T05:37:03;12.40;99.90
11944;DHT22;6031;50.220;10.122;2022-09-09T05:39:29;12.30;99.90
11944;DHT22;6031;50.220;10.122;2022-09-09T05:41:55;12.20;99.90
11944;DHT22;6031;50.220;10.122;2022-09-09T05:44:20;12.20;99.90
11944;DHT22;6031;50.220;10.122;2022-09-09T05:46:48;12.30;99.90
11944;DHT22;6031;50.220;10.122;2022-09-09T05:49:15;12.40;99.90
11944;DHT22;6031;50.220;10.122;2022-09-09T05:51:41;12.60;99.90
11944;DHT22;6031;50.220;10.122;2022-09-09T05:54:08;13.10;99.90
11944;DHT22;6031;50.220;10.122;2022-09-09T05:56:34;13.90;99.90
11944;DHT22;6031;50.220;10.122;2022-09-09T05:59:00;14.80;99.90
11944;DHT22;6031;50.220;10.122;2022-09-09T06:01:28;15.40;99.90
11944;DHT22;6031;50.220;10.122;2022-09-09T06:03:54;16.00;99.90
11944;DHT22;6031;50.220;10.122;2022-09-09T06:06:25;16.80;99.90
11944;DHT22;6031;50.220;10.122;2022-09-09T06:08:52;17.20;99.90
11944;DHT22;6031;50.220;10.122;2022-09-09T06:11:23;17.40;99.90
11944;DHT22;6031;50.220;10.122;2022-09-09T06:13:50;18.00;99.90
11944;DHT22;6031;50.220;10.122;2022-09-09T06:16:20;18.10;99.90
11944;DHT22;6031;50.220;10.122;2022-09-09T06:18:48;18.50;99.90
11944;DHT22;6031;50.220;10.122;2022-09-09T06:21:19;18.60;99.90
11944;DHT22;6031;50.220;10.122;2022-09-09T06:23:46;19.20;99.90
11944;DHT22;6031;50.220;10.122;2022-09-09T06:26:18;20.00;99.90
11944;DHT22;6031;50.220;10.122;2022-09-09T06:28:45;20.90;99.90
11944;DHT22;6031;50.220;10.122;2022-09-09T06:31:12;20.90;99.90
11944;DHT22;6031;50.220;10.122;2022-09-09T06:33:40;21.20;99.90
11944;DHT22;6031;50.220;10.122;2022-09-09T06:36:17;22.10;99.90
11944;DHT22;6031;50.220;10.122;2022-09-09T06:38:44;22.70;99.90
11944;DHT22;6031;50.220;10.122;2022-09-09T06:41:11;23.10;99.90
11944;DHT22;6031;50.220;10.122;2022-09-09T06:43:36;23.70;99.90
11944;DHT22;6031;50.220;10.122;2022-09-09T06:46:08;24.30;99.90
11944;DHT22;6031;50.220;10.122;2022-09-09T06:48:35;24.50;99.90
11944;DHT22;6031;50.220;10.122;2022-09-09T06:51:06;24.30;99.90
11944;DHT22;6031;50.220;10.122;2022-09-09T06:53:34;24.80;99.90
11944;DHT22;6031;50.220;10.122;2022-09-09T06:56:18;25.00;99.90
11944;DHT22;6031;50.220;10.122;2022-09-09T06:58:45;25.40;99.90
11944;DHT22;6031;50.220;10.122;2022-09-09T07:01:13;26.00;99.90
11944;DHT22;6031;50.220;10.122;2022-09-09T07:03:40;26.60;99.90
11944;DHT22;6031;50.220;10.122;2022-09-09T07:06:07;26.80;99.90
11944;DHT22;6031;50.220;10.122;2022-09-09T07:08:37;25.70;99.90
11944;DHT22;6031;50.220;10.122;2022-09-09T07:11:04;25.50;99.90
11944;DHT22;6031;50.220;10.122;2022-09-09T07:13:30;26.20;99.90
11944;DHT22;6031;50.220;10.122;2022-09-09T07:16:03;27.30;99.90
11944;DHT22;6031;50.220;10.122;2022-09-09T07:18:29;27.20;99.90
11944;DHT22;6031;50.220;10.122;2022-09-09T07:20:55;25.60;99.90
11944;DHT22;6031;50.220;10.122;2022-09-09T07:23:22;25.20;99.90
11944;DHT22;6031;50.220;10.122;2022-09-09T07:25:48;24.40;99.90
11944;DHT22;6031;50.220;10.122;2022-09-09T07:28:14;23.20;99.90
11944;DHT22;6031;50.220;10.122;2022-09-09T07:30:40;23.50;99.90
11944;DHT22;6031;50.220;10.122;2022-09-09T07:33:06;24.40;99.90
11944;DHT22;6031;50.220;10.122;2022-09-09T07:35:32;24.40;99.90
11944;DHT22;6031;50.220;10.122;2022-09-09T07:37:58;25.00;99.90
11944;DHT22;6031;50.220;10.122;2022-09-09T07:40:25;24.90;99.90
11944;DHT22;6031;50.220;10.122;2022-09-09T07:42:51;24.20;99.90
11944;DHT22;6031;50.220;10.122;2022-09-09T07:45:16;24.20;99.90
11944;DHT22;6031;50.220;10.122;2022-09-09T07:47:42;23.80;99.90
11944;DHT22;6031;50.220;10.122;2022-09-09T07:50:09;24.00;99.90
11944;DHT22;6031;50.220;10.122;2022-09-09T07:52:38;23.30;99.90
11944;DHT22;6031;50.220;10.122;2022-09-09T07:55:04;23.10;99.90
11944;DHT22;6031;50.220;10.122;2022-09-09T07:57:31;23.80;99.90
11944;DHT22;6031;50.220;10.122;2022-09-09T07:59:57;25.00;99.90
11944;DHT22;6031;50.220;10.122;2022-09-09T08:02:23;24.70;99.90
11944;DHT22;6031;50.220;10.122;2022-09-09T08:04:50;24.30;99.90
11944;DHT22;6031;50.220;10.122;2022-09-09T08:07:17;24.80;99.90
11944;DHT22;6031;50.220;10.122;2022-09-09T08:09:42;25.00;99.90
11944;DHT22;6031;50.220;10.122;2022-09-09T08:12:09;26.00;99.90
11944;DHT22;6031;50.220;10.122;2022-09-09T08:14:34;25.70;99.90
11944;DHT22;6031;50.220;10.122;2022-09-09T08:17:00;24.90;99.90
11944;DHT22;6031;50.220;10.122;2022-09-09T08:19:26;23.80;99.90
11944;DHT22;6031;50.220;10.122;2022-09-09T08:21:54;22.90;99.90
11944;DHT22;6031;50.220;10.122;2022-09-09T08:24:20;21.80;99.90
11944;DHT22;6031;50.220;10.122;2022-09-09T08:26:47;21.10;99.90
11944;DHT22;6031;50.220;10.122;2022-09-09T08:29:15;20.50;99.90
11944;DHT22;6031;50.220;10.122;2022-09-09T08:31:51;20.70;99.90
11944;DHT22;6031;50.220;10.122;2022-09-09T08:34:20;20.90;99.90
11944;DHT22;6031;50.220;10.122;2022-09-09T08:36:47;21.30;99.90
11944;DHT22;6031;50.220;10.122;2022-09-09T08:39:15;23.00;99.90
11944;DHT22;6031;50.220;10.122;2022-09-09T08:53:01;26.30;99.90
11944;DHT22;6031;50.220;10.122;2022-09-09T08:55:41;24.90;99.90
11944;DHT22;6031;50.220;10.122;2022-09-09T09:08:59;22.00;99.90
11944;DHT22;6031;50.220;10.122;2022-09-09T09:11:26;23.30;99.90
11944;DHT22;6031;50.220;10.122;2022-09-09T09:13:59;26.20;99.90
11944;DHT22;6031;50.220;10.122;2022-09-09T09:16:40;26.90;99.90
11944;DHT22;6031;50.220;10.122;2022-09-09T09:19:13;27.20;99.90
11944;DHT22;6031;50.220;10.122;2022-09-09T09:21:42;27.90;99.90
11944;DHT22;6031;50.220;10.122;2022-09-09T09:24:23;26.20;99.90
11944;DHT22;6031;50.220;10.122;2022-09-09T09:26:51;27.40;99.90
11944;DHT22;6031;50.220;10.122;2022-09-09T09:29:19;29.10;98.60
11944;DHT22;6031;50.220;10.122;2022-09-09T09:31:53;29.80;97.60
11944;DHT22;6031;50.220;10.122;2022-09-09T09:34:20;31.60;95.60
11944;DHT22;6031;50.220;10.122;2022-09-09T09:36:53;30.90;94.60
11944;DHT22;6031;50.220;10.122;2022-09-09T09:39:30;30.70;94.10
11944;DHT22;6031;50.220;10.122;2022-09-09T09:41:56;30.70;94.90
11944;DHT22;6031;50.220;10.122;2022-09-09T09:44:28;31.80;93.00
11944;DHT22;6031;50.220;10.122;2022-09-09T09:47:12;33.10;92.30
11944;DHT22;6031;50.220;10.122;2022-09-09T09:49:39;32.10;91.10
11944;DHT22;6031;50.220;10.122;2022-09-09T09:52:06;30.00;93.30
11944;DHT22;6031;50.220;10.122;2022-09-09T09:54:37;28.90;94.60
11944;DHT22;6031;50.220;10.122;2022-09-09T09:57:14;27.60;95.40
11944;DHT22;6031;50.220;10.122;2022-09-09T09:59:41;25.70;97.30
11944;DHT22;6031;50.220;10.122;2022-09-09T10:02:22;24.90;99.30
11944;DHT22;6031;50.220;10.122;2022-09-09T10:05:05;24.50;99.90
11944;DHT22;6031;50.220;10.122;2022-09-09T10:07:31;25.90;99.90
11944;DHT22;6031;50.220;10.122;2022-09-09T10:09:58;27.40;98.10
11944;DHT22;6031;50.220;10.122;2022-09-09T10:17:41;25.30;99.00
11944;DHT22;6031;50.220;10.122;2022-09-09T10:20:20;25.10;99.90
11944;DHT22;6031;50.220;10.122;2022-09-09T10:23:12;24.30;99.90
11944;DHT22;6031;50.220;10.122;2022-09-09T10:26:06;23.50;99.90
11944;DHT22;6031;50.220;10.122;2022-09-09T10:28:57;22.20;99.90
11944;DHT22;6031;50.220;10.122;2022-09-09T10:32:21;21.70;99.90
11944;DHT22;6031;50.220;10.122;2022-09-09T10:43:17;25.90;99.90
11944;DHT22;6031;50.220;10.122;2022-09-09T10:46:06;28.70;98.50
11944;DHT22;6031;50.220;10.122;2022-09-09T10:48:42;30.80;95.50
11944;DHT22;6031;50.220;10.122;2022-09-09T10:54:13;28.20;95.80
11944;DHT22;6031;50.220;10.122;2022-09-09T10:56:44;25.90;99.20
11944;DHT22;6031;50.220;10.122;2022-09-09T10:59:20;24.50;99.90
11944;DHT22;6031;50.220;10.122;2022-09-09T11:02:01;23.60;99.90
11944;DHT22;6031;50.220;10.122;2022-09-09T11:04:33;22.70;99.90
11944;DHT22;6031;50.220;10.122;2022-09-09T11:07:02;22.00;99.90
11944;DHT22;6031;50.220;10.122;2022-09-09T11:09:35;21.10;99.90
11944;DHT22;6031;50.220;10.122;2022-09-09T11:12:02;19.80;99.90
11944;DHT22;6031;50.220;10.122;2022-09-09T11:14:45;18.50;99.90
11944;DHT22;6031;50.220;10.122;2022-09-09T11:17:18;17.80;99.90
11944;DHT22;6031;50.220;10.122;2022-09-09T11:19:46;17.70;99.90
11944;DHT22;6031;50.220;10.122;2022-09-09T11:25:15;18.20;99.90
11944;DHT22;6031;50.220;10.122;2022-09-09T11:28:11;19.00;99.90
11944;DHT22;6031;50.220;10.122;2022-09-09T11:30:54;21.40;99.90
11944;DHT22;6031;50.220;10.122;2022-09-09T11:33:58;24.20;99.90
11944;DHT22;6031;50.220;10.122;2022-09-09T11:36:44;27.30;99.90
11944;DHT22;6031;50.220;10.122;2022-09-09T11:44:40;32.40;97.70
11944;DHT22;6031;50.220;10.122;2022-09-09T11:47:24;32.10;96.90
11944;DHT22;6031;50.220;10.122;2022-09-09T11:49:55;31.30;97.20
11944;DHT22;6031;50.220;10.122;2022-09-09T11:52:47;30.60;97.90
11944;DHT22;6031;50.220;10.122;2022-09-09T11:55:32;28.20;98.50
11944;DHT22;6031;50.220;10.122;2022-09-09T12:02:58;25.70;99.90
11944;DHT22;6031;50.220;10.122;2022-09-09T12:05:36;26.20;99.90
11944;DHT22;6031;50.220;10.122;2022-09-09T12:08:02;28.00;99.90
11944;DHT22;6031;50.220;10.122;2022-09-09T12:10:33;29.90;99.90
11944;DHT22;6031;50.220;10.122;2022-09-09T12:13:27;31.00;97.70
11944;DHT22;6031;50.220;10.122;2022-09-09T12:15:55;32.00;97.80
11944;DHT22;6031;50.220;10.122;2022-09-09T12:18:38;30.20;94.50
11944;DHT22;6031;50.220;10.122;2022-09-09T12:21:11;28.70;97.20
11944;DHT22;6031;50.220;10.122;2022-09-09T12:29:12;24.10;99.90
11944;DHT22;6031;50.220;10.122;2022-09-09T12:31:46;23.30;99.90
11944;DHT22;6031;50.220;10.122;2022-09-09T12:35:02;22.70;99.90
11944;DHT22;6031;50.220;10.122;2022-09-09T12:37:14;22.20;99.90
11944;DHT22;6031;50.220;10.122;2022-09-09T12:39:56;22.00;99.90
11944;DHT22;6031;50.220;10.122;2022-09-09T12:42:23;21.70;99.90
11944;DHT22;6031;50.220;10.122;2022-09-09T12:44:57;21.30;99.90
11944;DHT22;6031;50.220;10.122;2022-09-09T12:47:36;21.20;99.90
11944;DHT22;6031;50.220;10.122;2022-09-09T12:50:16;21.20;99.90
11944;DHT22;6031;50.220;10.122;2022-09-09T12:52:42;20.90;99.90
11944;DHT22;6031;50.220;10.122;2022-09-09T12:55:20;21.00;99.90
11944;DHT22;6031;50.220;10.122;2022-09-09T12:57:48;21.30;99.90
11944;DHT22;6031;50.220;10.122;2022-09-09T13:00:21;21.40;99.90
11944;DHT22;6031;50.220;10.122;2022-09-09T13:02:56;22.20;99.90
11944;DHT22;6031;50.220;10.122;2022-09-09T13:05:25;24.30;99.90
11944;DHT22;6031;50.220;10.122;2022-09-09T13:07:51;26.30;99.90
11944;DHT22;6031;50.220;10.122;2022-09-09T13:10:28;27.80;99.90
11944;DHT22;6031;50.220;10.122;2022-09-09T13:12:55;28.20;98.10
11944;DHT22;6031;50.220;10.122;2022-09-09T13:15:23;27.00;98.40
11944;DHT22;6031;50.220;10.122;2022-09-09T13:17:58;26.30;99.90
11944;DHT22;6031;50.220;10.122;2022-09-09T13:20:26;26.10;98.30
11944;DHT22;6031;50.220;10.122;2022-09-09T13:22:54;26.00;99.20
11944;DHT22;6031;50.220;10.122;2022-09-09T13:25:27;26.30;98.40
11944;DHT22;6031;50.220;10.122;2022-09-09T13:28:01;26.40;97.40
11944;DHT22;6031;50.220;10.122;2022-09-09T13:30:34;26.20;97.70
11944;DHT22;6031;50.220;10.122;2022-09-09T13:35:57;25.90;98.20
11944;DHT22;6031;50.220;10.122;2022-09-09T13:38:24;26.10;98.50
11944;DHT22;6031;50.220;10.122;2022-09-09T13:41:00;26.10;99.30
11944;DHT22;6031;50.220;10.122;2022-09-09T13:43:38;26.10;97.60
11944;DHT22;6031;50.220;10.122;2022-09-09T13:49:02;26.10;98.30
11944;DHT22;6031;50.220;10.122;2022-09-09T13:54:08;25.50;96.20
11944;DHT22;6031;50.220;10.122;2022-09-09T13:56:35;25.10;97.00
11944;DHT22;6031;50.220;10.122;2022-09-09T13:59:02;25.40;97.50
11944;DHT22;6031;50.220;10.122;2022-09-09T14:01:28;25.50;96.00
11944;DHT22;6031;50.220;10.122;2022-09-09T14:03:54;25.00;97.10
11944;DHT22;6031;50.220;10.122;2022-09-09T14:06:20;24.20;97.40
11944;DHT22;6031;50.220;10.122;2022-09-09T14:08:47;23.20;97.80
11944;DHT22;6031;50.220;10.122;2022-09-09T14:11:14;22.50;98.20
11944;DHT22;6031;50.220;10.122;2022-09-09T14:13:40;22.10;98.80
11944;DHT22;6031;50.220;10.122;2022-09-09T14:16:05;22.10;98.60
11944;DHT22;6031;50.220;10.122;2022-09-09T14:18:31;22.30;99.40
11944;DHT22;6031;50.220;10.122;2022-09-09T14:20:57;22.40;99.00
11944;DHT22;6031;50.220;10.122;2022-09-09T14:23:24;22.60;99.40
11944;DHT22;6031;50.220;10.122;2022-09-09T14:25:50;22.70;99.20
11944;DHT22;6031;50.220;10.122;2022-09-09T14:28:16;22.70;99.20
11944;DHT22;6031;50.220;10.122;2022-09-09T14:30:43;22.60;99.90
11944;DHT22;6031;50.220;10.122;2022-09-09T14:33:11;22.40;99.90
11944;DHT22;6031;50.220;10.122;2022-09-09T14:35:37;22.30;99.90
11944;DHT22;6031;50.220;10.122;2022-09-09T14:38:04;22.60;99.90
11944;DHT22;6031;50.220;10.122;2022-09-09T14:40:29;22.80;99.90
11944;DHT22;6031;50.220;10.122;2022-09-09T14:42:55;22.60;99.90
11944;DHT22;6031;50.220;10.122;2022-09-09T14:45:22;22.90;99.90
11944;DHT22;6031;50.220;10.122;2022-09-09T14:47:49;23.10;99.90
11944;DHT22;6031;50.220;10.122;2022-09-09T14:50:15;22.80;99.90
11944;DHT22;6031;50.220;10.122;2022-09-09T14:52:40;23.00;99.90
11944;DHT22;6031;50.220;10.122;2022-09-09T14:55:06;23.10;99.90
11944;DHT22;6031;50.220;10.122;2022-09-09T14:57:32;23.10;99.90
11944;DHT22;6031;50.220;10.122;2022-09-09T14:59:58;22.90;99.90
11944;DHT22;6031;50.220;10.122;2022-09-09T15:02:23;22.60;99.90
11944;DHT22;6031;50.220;10.122;2022-09-09T15:04:49;22.70;99.90
11944;DHT22;6031;50.220;10.122;2022-09-09T15:07:16;22.70;99.90
11944;DHT22;6031;50.220;10.122;2022-09-09T15:09:42;22.70;99.90
11944;DHT22;6031;50.220;10.122;2022-09-09T15:12:07;22.90;99.90
11944;DHT22;6031;50.220;10.122;2022-09-09T15:14:33;22.70;99.90
11944;DHT22;6031;50.220;10.122;2022-09-09T15:17:00;22.80;99.90
11944;DHT22;6031;50.220;10.122;2022-09-09T15:19:26;22.70;99.90
11944;DHT22;6031;50.220;10.122;2022-09-09T15:21:52;22.80;99.90
11944;DHT22;6031;50.220;10.122;2022-09-09T15:24:17;23.00;99.90
11944;DHT22;6031;50.220;10.122;2022-09-09T15:26:43;23.00;99.90
11944;DHT22;6031;50.220;10.122;2022-09-09T15:29:09;22.70;99.90
11944;DHT22;6031;50.220;10.122;2022-09-09T15:31:35;22.20;99.60
11944;DHT22;6031;50.220;10.122;2022-09-09T15:34:03;21.70;99.30
11944;DHT22;6031;50.220;10.122;2022-09-09T15:36:31;21.30;99.50
11944;DHT22;6031;50.220;10.122;2022-09-09T15:39:01;21.00;99.90
11944;DHT22;6031;50.220;10.122;2022-09-09T15:41:28;20.90;99.90
11944;DHT22;6031;50.220;10.122;2022-09-09T15:43:55;20.80;99.90
11944;DHT22;6031;50.220;10.122;2022-09-09T15:46:38;20.70;99.90
11944;DHT22;6031;50.220;10.122;2022-09-09T15:49:09;20.80;99.90
11944;DHT22;6031;50.220;10.122;2022-09-09T15:51:36;20.80;99.90
11944;DHT22;6031;50.220;10.122;2022-09-09T15:54:03;20.70;99.90
11944;DHT22;6031;50.220;10.122;2022-09-09T15:56:29;20.80;99.90
11944;DHT22;6031;50.220;10.122;2022-09-09T15:58:59;20.80;99.90
11944;DHT22;6031;50.220;10.122;2022-09-09T16:01:26;20.70;99.90
11944;DHT22;6031;50.220;10.122;2022-09-09T16:03:52;20.80;99.90
11944;DHT22;6031;50.220;10.122;2022-09-09T16:06:20;20.80;99.90
11944;DHT22;6031;50.220;10.122;2022-09-09T16:08:48;20.80;99.90
11944;DHT22;6031;50.220;10.122;2022-09-09T16:11:20;20.60;99.90
11944;DHT22;6031;50.220;10.122;2022-09-09T16:13:46;20.50;99.90
11944;DHT22;6031;50.220;10.122;2022-09-09T16:16:13;20.50;99.90
11944;DHT22;6031;50.220;10.122;2022-09-09T16:18:42;20.60;99.90
11944;DHT22;6031;50.220;10.122;2022-09-09T16:21:14;20.70;99.90
11944;DHT22;6031;50.220;10.122;2022-09-09T16:23:40;20.60;99.90
11944;DHT22;6031;50.220;10.122;2022-09-09T16:26:05;20.60;99.90
11944;DHT22;6031;50.220;10.122;2022-09-09T16:28:31;20.60;99.90
11944;DHT22;6031;50.220;10.122;2022-09-09T16:30:56;20.60;99.90
11944;DHT22;6031;50.220;10.122;2022-09-09T16:33:23;20.60;99.90
11944;DHT22;6031;50.220;10.122;2022-09-09T16:35:49;20.60;99.90
11944;DHT22;6031;50.220;10.122;2022-09-09T16:38:15;20.50;99.90
11944;DHT22;6031;50.220;10.122;2022-09-09T16:40:40;20.40;99.90
11944;DHT22;6031;50.220;10.122;2022-09-09T16:43:07;20.30;99.90
11944;DHT22;6031;50.220;10.122;2022-09-09T16:45:33;20.10;99.90
11944;DHT22;6031;50.220;10.122;2022-09-09T16:47:59;19.90;99.90
11944;DHT22;6031;50.220;10.122;2022-09-09T16:50:26;19.70;99.90
11944;DHT22;6031;50.220;10.122;2022-09-09T16:52:52;19.60;99.90
11944;DHT22;6031;50.220;10.122;2022-09-09T16:55:18;19.40;99.90
11944;DHT22;6031;50.220;10.122;2022-09-09T16:57:46;19.30;99.90
11944;DHT22;6031;50.220;10.122;2022-09-09T17:00:14;19.20;99.90
11944;DHT22;6031;50.220;10.122;2022-09-09T17:02:42;19.20;99.90
11944;DHT22;6031;50.220;10.122;2022-09-09T17:05:08;19.10;99.90
11944;DHT22;6031;50.220;10.122;2022-09-09T17:07:34;19.00;99.90
11944;DHT22;6031;50.220;10.122;2022-09-09T17:10:01;19.00;99.90
11944;DHT22;6031;50.220;10.122;2022-09-09T17:12:26;18.90;99.90
11944;DHT22;6031;50.220;10.122;2022-09-09T17:14:52;18.80;99.90
11944;DHT22;6031;50.220;10.122;2022-09-09T17:17:17;18.70;99.90
11944;DHT22;6031;50.220;10.122;2022-09-09T17:19:43;18.60;99.90
11944;DHT22;6031;50.220;10.122;2022-09-09T17:22:08;18.50;99.90
11944;DHT22;6031;50.220;10.122;2022-09-09T17:24:34;18.50;99.90
11944;DHT22;6031;50.220;10.122;2022-09-09T17:27:00;18.30;99.90
11944;DHT22;6031;50.220;10.122;2022-09-09T17:29:27;18.30;99.90
11944;DHT22;6031;50.220;10.122;2022-09-09T17:31:53;18.20;99.90